Time;durP1;ratioP1;P1;durP2;ratioP2;P2;SDS_P1;SDS_P2;PMS_P1;PMS_P2;Temp;Humidity;BMP_temperature;BMP_pressure;BME280_temperature;BME280_humidity;BME280_pressure;Samples;Min_cycle;Max_cycle;Signal;HPM_P1;HPM_P2
2023/03/15 02:17:08;;;;;;;7.63;1.35;;;;;;;2.09;100.00;97754.09;15304858;19;20006;-85
2023/03/15 02:22:41;;;;;;;4.93;1.38;;;;;;;2.14;100.00;97762.56;15291175;19;20014;-83
2023/03/15 02:28:09;;;;;;;5.65;1.27;;;;;;;2.04;100.00;97774.91;15289979;19;20033;-83
2023/03/15 02:33:40;;;;;;;7.20;1.40;;;;;;;1.97;100.00;97784.31;15292668;19;20090;-83
2023/03/15 02:39:13;;;;;;;6.60;1.40;;;;;;;1.83;100.00;97780.13;15323220;19;20031;-81
2023/03/15 02:44:45;;;;;;;9.55;1.42;;;;;;;1.66;100.00;97779.63;15310264;19;20014;-83
2023/03/15 02:50:11;;;;;;;5.20;1.17;;;;;;;1.54;100.00;97781.44;15310668;19;20006;-83
2023/03/15 02:55:36;;;;;;;5.57;1.15;;;;;;;1.27;100.00;97781.81;15304347;19;20461;-85
2023/03/15 03:01:05;;;;;;;3.97;1.27;;;;;;;1.21;100.00;97796.38;15306307;19;20015;-84
2023/03/15 03:06:31;;;;;;;4.28;1.10;;;;;;;1.26;100.00;97788.06;15307242;19;20049;-84
2023/03/15 03:12:01;;;;;;;8.55;1.52;;;;;;;1.23;100.00;97796.25;15321116;19;20033;-85
2023/03/15 03:17:29;;;;;;;7.43;1.33;;;;;;;1.27;100.00;97805.69;15328523;19;20022;-85
2023/03/15 03:22:54;;;;;;;6.38;1.25;;;;;;;1.19;100.00;97819.53;15355177;19;20014;-84
2023/03/15 03:28:20;;;;;;;7.47;1.27;;;;;;;1.22;100.00;97821.97;15348524;19;20006;-83
2023/03/15 03:33:50;;;;;;;7.10;1.52;;;;;;;1.08;100.00;97833.59;15301409;19;20017;-84
2023/03/15 03:39:15;;;;;;;6.75;1.42;;;;;;;1.00;100.00;97843.13;15320500;19;20483;-83
2023/03/15 03:44:45;;;;;;;8.70;1.40;;;;;;;0.97;100.00;97844.16;15319340;19;20018;-83
2023/03/15 03:50:18;;;;;;;5.20;1.15;;;;;;;0.89;100.00;97859.81;15316199;19;20070;-83
2023/03/15 03:55:42;;;;;;;7.15;1.50;;;;;;;0.85;100.00;97856.56;15319789;19;20034;-84
2023/03/15 04:01:10;;;;;;;6.57;1.55;;;;;;;0.86;100.00;97871.50;15316931;19;20019;-85
2023/03/15 04:06:44;;;;;;;5.97;1.17;;;;;;;0.98;100.00;97876.88;15314465;19;20078;-84
2023/03/15 04:12:17;;;;;;;4.95;1.40;;;;;;;0.70;100.00;97877.09;15312588;19;20019;-83
2023/03/15 04:17:43;;;;;;;4.18;1.30;;;;;;;0.55;100.00;97887.00;15309847;19;20092;-84
2023/03/15 04:23:17;;;;;;;6.63;1.45;;;;;;;0.45;100.00;97885.97;15324666;19;20026;-83
2023/03/15 04:28:46;;;;;;;7.68;1.38;;;;;;;0.32;100.00;97901.06;15306711;19;20013;-82
2023/03/15 04:34:37;;;;;;;5.78;1.30;;;;;;;0.19;100.00;97903.75;15301336;19;20015;-83
2023/03/15 04:40:23;;;;;;;5.30;1.30;;;;;;;0.09;100.00;97922.06;15308307;19;20014;-83
2023/03/15 04:46:08;;;;;;;8.05;1.48;;;;;;;0.11;100.00;97922.81;15311328;19;20444;-84
2023/03/15 04:51:49;;;;;;;7.20;1.40;;;;;;;0.09;100.00;97924.72;15312897;19;20003;-84
2023/03/15 04:57:33;;;;;;;4.85;1.52;;;;;;;0.05;100.00;97933.88;15314146;19;20015;-86
2023/03/15 05:03:18;;;;;;;4.82;1.42;;;;;;;0.07;100.00;97943.38;15318833;19;20343;-84
2023/03/15 05:09:02;;;;;;;8.02;1.50;;;;;;;0.06;100.00;97946.16;15311027;19;20018;-83
2023/03/15 05:15:03;;;;;;;6.10;1.40;;;;;;;0.07;100.00;97963.72;15307326;19;20038;-87
2023/03/15 05:20:54;;;;;;;6.78;1.60;;;;;;;0.07;100.00;97966.34;15311035;19;20018;-83
2023/03/15 05:26:26;;;;;;;7.55;1.48;;;;;;;0.08;100.00;97978.66;15309330;19;20022;-85
2023/03/15 05:32:13;;;;;;;5.40;1.30;;;;;;;0.06;100.00;97981.41;15302222;19;20519;-86
2023/03/15 06:29:23;;;;;;;4.30;1.20;;;;;;;0.32;100.00;98046.78;15307902;19;20014;-84
2023/03/15 06:34:48;;;;;;;5.78;1.40;;;;;;;0.44;100.00;98059.19;15293547;19;20018;-85
2023/03/15 06:40:15;;;;;;;5.65;1.30;;;;;;;0.55;100.00;98051.34;15293580;19;20058;-82
2023/03/15 06:45:43;;;;;;;3.08;1.10;;;;;;;0.67;100.00;98062.03;15295367;19;20024;-84
2023/03/15 06:51:08;;;;;;;8.55;1.50;;;;;;;0.77;100.00;98068.38;15287519;19;20015;-84
2023/03/15 06:56:39;;;;;;;4.97;1.30;;;;;;;0.80;100.00;98068.19;15300414;19;20045;-92
2023/03/15 07:02:20;;;;;;;5.65;1.40;;;;;;;0.85;100.00;98076.66;15308385;19;20014;-83
2023/03/15 07:07:47;;;;;;;6.07;1.52;;;;;;;0.91;100.00;98088.66;15313918;19;20006;-83
2023/03/15 07:13:20;;;;;;;7.45;1.60;;;;;;;0.96;100.00;98090.97;15313912;19;20010;-84
2023/03/15 07:24:31;;;;;;;6.32;1.42;;;;;;;1.08;100.00;98106.00;15347769;19;19975;-91
2023/03/15 07:29:56;;;;;;;5.25;1.27;;;;;;;1.19;100.00;98118.50;15360184;19;20009;-90
2023/03/15 07:41:09;;;;;;;7.22;1.35;;;;;;;1.26;100.00;98132.19;15364808;19;20042;-91
2023/03/15 07:46:45;;;;;;;9.23;1.77;;;;;;;1.26;100.00;98133.03;15302642;19;20038;-87
2023/03/15 07:52:12;;;;;;;8.43;1.52;;;;;;;1.28;100.00;98135.56;15305904;19;20073;-87
2023/03/15 07:57:44;;;;;;;5.15;1.33;;;;;;;1.36;100.00;98146.47;15301553;19;20342;-87
2023/03/15 08:03:16;;;;;;;5.32;1.40;;;;;;;1.44;100.00;98141.50;15302668;19;20007;-86
2023/03/15 08:08:48;;;;;;;4.18;1.40;;;;;;;1.49;100.00;98146.47;15300836;19;20018;-85
2023/03/15 08:14:16;;;;;;;8.40;1.70;;;;;;;1.54;100.00;98141.66;15300878;19;20019;-85
2023/03/15 08:19:42;;;;;;;4.18;1.30;;;;;;;1.59;100.00;98158.13;15296639;19;20017;-84
2023/03/15 08:25:08;;;;;;;5.38;1.45;;;;;;;1.65;100.00;98157.66;15305190;19;20010;-86
2023/03/15 08:30:37;;;;;;;6.78;1.40;;;;;;;1.80;100.00;98162.81;15325084;19;20478;-84
2023/03/15 08:36:03;;;;;;;7.32;1.40;;;;;;;1.92;100.00;98171.72;15320478;19;20458;-83
2023/03/15 08:41:29;;;;;;;6.03;1.45;;;;;;;1.95;100.00;98188.25;15316339;19;20022;-84
2023/03/15 08:46:58;;;;;;;4.75;1.50;;;;;;;2.02;100.00;98186.00;15309433;19;20022;-85
2023/03/15 08:52:28;;;;;;;2.47;1.08;;;;;;;2.45;100.00;98196.09;15307984;19;20014;-87
2023/03/15 08:58:00;;;;;;;3.92;1.20;;;;;;;2.35;100.00;98188.94;15312185;19;20019;-83
2023/03/15 09:03:31;;;;;;;5.15;1.40;;;;;;;2.21;100.00;98203.25;15312833;19;20431;-85
2023/03/15 09:09:02;;;;;;;3.38;1.17;;;;;;;2.17;100.00;98207.94;15307614;19;20010;-85
2023/03/15 09:14:19;;;;;;;3.92;1.45;;;;;;;2.09;100.00;98208.50;15305849;19;20029;-83
2023/03/15 09:19:49;;;;;;;7.22;2.50;;;;;;;2.11;100.00;98213.72;15306103;19;20014;-83
2023/03/15 09:25:15;;;;;;;4.87;3.17;;;;;;;2.11;100.00;98224.34;15305743;19;20030;-84
2023/03/15 09:30:42;;;;;;;4.10;1.98;;;;;;;2.11;100.00;98233.16;15308485;19;20277;-85
2023/03/15 09:36:10;;;;;;;5.85;1.23;;;;;;;1.92;100.00;98251.41;15304093;19;20478;-83
2023/03/15 09:41:44;;;;;;;3.35;1.27;;;;;;;1.77;100.00;98256.00;15320904;19;20046;-85
2023/03/15 09:47:25;;;;;;;3.10;1.30;;;;;;;1.76;100.00;98279.06;15307536;19;20027;-85
2023/03/15 09:53:00;;;;;;;2.42;1.00;;;;;;;1.76;100.00;98275.56;15307403;19;20018;-85
2023/03/15 09:58:34;;;;;;;2.83;1.10;;;;;;;1.86;100.00;98279.25;15300582;19;20074;-84
2023/03/15 10:04:09;;;;;;;3.45;1.23;;;;;;;1.90;100.00;98278.06;15315040;19;20069;-87
2023/03/15 10:09:41;;;;;;;3.38;1.20;;;;;;;1.83;100.00;98279.47;15309120;19;20367;-85
2023/03/15 10:15:30;;;;;;;3.72;1.17;;;;;;;1.83;100.00;98298.06;15308523;19;20029;-86
2023/03/15 10:21:03;;;;;;;3.47;1.10;;;;;;;2.01;100.00;98295.91;15315426;19;20016;-84
2023/03/15 10:26:37;;;;;;;2.35;1.05;;;;;;;2.20;100.00;98294.56;15298331;19;20010;-83
2023/03/15 10:32:04;;;;;;;2.45;0.85;;;;;;;2.30;100.00;98283.16;15298747;19;20022;-86
2023/03/15 10:37:30;;;;;;;2.92;1.10;;;;;;;2.55;100.00;98284.00;15293139;19;20027;-83
2023/03/15 10:42:57;;;;;;;4.40;1.20;;;;;;;2.76;100.00;98281.53;15293937;19;20333;-84
2023/03/15 10:48:21;;;;;;;2.75;1.00;;;;;;;2.85;100.00;98282.66;15290319;19;20017;-84
2023/03/15 10:54:03;;;;;;;2.53;1.00;;;;;;;2.65;100.00;98286.81;15291223;19;20014;-84
2023/03/15 10:59:34;;;;;;;1.80;0.57;;;;;;;1.94;100.00;98294.66;15285707;19;20030;-85
2023/03/15 11:05:09;;;;;;;0.82;0.70;;;;;;;1.70;100.00;98300.75;15283707;19;20045;-84
2023/03/15 11:10:36;;;;;;;1.35;0.90;;;;;;;1.74;100.00;98320.81;15283806;19;20086;-85
2023/03/15 11:16:10;;;;;;;1.75;0.70;;;;;;;1.72;100.00;98309.44;15278050;19;20037;-82
2023/03/15 11:21:38;;;;;;;1.75;0.90;;;;;;;1.89;100.00;98318.88;15278911;19;20018;-85
2023/03/15 11:27:06;;;;;;;1.65;1.00;;;;;;;1.75;100.00;98319.84;15276958;19;20014;-85
2023/03/15 11:32:34;;;;;;;2.78;1.50;;;;;;;1.65;100.00;98324.94;15279879;19;20024;-85
2023/03/15 11:38:04;;;;;;;2.65;1.40;;;;;;;1.51;100.00;98339.19;15291030;19;20014;-84
2023/03/15 11:43:44;;;;;;;2.25;1.40;;;;;;;1.59;100.00;98345.81;15281738;19;20023;-82
2023/03/15 11:49:24;;;;;;;3.50;1.13;;;;;;;1.60;100.00;98344.81;15280245;19;20018;-84
2023/03/15 11:54:49;;;;;;;2.10;1.10;;;;;;;1.64;100.00;98333.03;15279892;19;20023;-86
2023/03/15 12:00:28;;;;;;;2.40;1.30;;;;;;;1.81;100.00;98334.50;15282993;19;20010;-85
2023/03/15 12:06:03;;;;;;;2.75;1.27;;;;;;;1.74;100.00;98344.72;15292657;19;20019;-82
2023/03/15 12:11:47;;;;;;;1.52;1.33;;;;;;;1.21;100.00;98374.88;15298178;19;20014;-85
2023/03/15 12:17:41;;;;;;;6.55;2.50;;;;;;;0.75;100.00;98388.53;15290001;19;20041;-85
2023/03/15 12:23:29;;;;;;;4.40;3.25;;;;;;;0.71;100.00;98408.22;15294308;19;20017;-84
2023/03/15 12:29:14;;;;;;;4.05;2.70;;;;;;;0.70;100.00;98411.81;15295401;19;20014;-83
2023/03/15 12:34:47;;;;;;;3.00;2.70;;;;;;;0.74;100.00;98413.34;15292813;19;20470;-87
2023/03/15 12:40:43;;;;;;;4.22;2.92;;;;;;;0.97;100.00;98432.22;15291359;19;20787;-86
2023/03/15 12:46:08;;;;;;;2.13;1.92;;;;;;;1.19;100.00;98429.84;15296071;19;20015;-84
2023/03/15 12:51:52;;;;;;;2.58;2.10;;;;;;;1.56;100.00;98430.97;15298404;19;20015;-86
2023/03/15 12:57:22;;;;;;;2.83;1.90;;;;;;;1.92;100.00;98437.38;15288873;19;20006;-84
2023/03/15 13:02:54;;;;;;;3.80;2.20;;;;;;;2.12;100.00;98428.00;15290214;19;20018;-85
2023/03/15 13:08:24;;;;;;;3.47;2.70;;;;;;;2.36;100.00;98395.31;15285797;19;20006;-86
2023/03/15 13:14:19;;;;;;;2.72;2.03;;;;;;;2.53;100.00;98375.50;15292712;19;20038;-85
2023/03/15 13:19:46;;;;;;;2.20;2.00;;;;;;;2.63;100.00;98371.22;15287083;19;20050;-86
2023/03/15 13:25:17;;;;;;;3.70;1.75;;;;;;;2.73;100.00;98371.38;15293753;19;20014;-87
2023/03/15 13:30:57;;;;;;;1.80;1.50;;;;;;;2.86;100.00;98369.50;15294682;19;20011;-86
2023/03/15 13:36:24;;;;;;;2.03;1.47;;;;;;;2.96;100.00;98353.72;15293017;19;20023;-87
2023/03/15 13:41:49;;;;;;;2.05;1.20;;;;;;;3.26;100.00;98344.38;15288775;19;20339;-84
2023/03/15 13:47:23;;;;;;;1.75;1.20;;;;;;;3.65;100.00;98339.59;15293894;19;20017;-86
2023/03/15 13:52:50;;;;;;;2.03;1.23;;;;;;;3.65;100.00;98333.41;15300258;19;20006;-86
2023/03/15 13:58:15;;;;;;;1.65;1.10;;;;;;;3.84;100.00;98338.16;15302291;19;20002;-86
2023/03/15 14:03:44;;;;;;;1.85;0.93;;;;;;;4.38;100.00;98341.03;15293843;19;20018;-87
2023/03/15 14:09:12;;;;;;;1.33;0.88;;;;;;;4.35;100.00;98322.63;15289699;19;20011;-85
2023/03/15 14:14:39;;;;;;;1.52;0.73;;;;;;;4.15;100.00;98323.25;15294743;19;20085;-84
2023/03/15 14:20:11;;;;;;;1.48;0.70;;;;;;;3.90;100.00;98328.84;15300028;19;20010;-84
2023/03/15 14:25:35;;;;;;;0.47;0.40;;;;;;;3.84;100.00;98330.16;15327490;19;20114;-82
2023/03/15 14:31:01;;;;;;;0.43;0.30;;;;;;;3.91;100.00;98326.06;15352213;19;20025;-81
2023/03/15 14:36:37;;;;;;;1.45;0.60;;;;;;;3.90;100.00;98321.69;15334034;19;20006;-83
2023/03/15 14:42:01;;;;;;;0.90;0.40;;;;;;;4.46;100.00;98330.59;15302318;19;20033;-80
2023/03/15 14:47:26;;;;;;;2.85;0.60;;;;;;;5.17;100.00;98339.94;15343896;19;20006;-81
2023/03/15 14:53:01;;;;;;;0.50;0.37;;;;;;;5.22;100.00;98319.88;15349011;19;20002;-79
2023/03/15 14:58:29;;;;;;;1.45;0.70;;;;;;;5.50;100.00;98317.50;15348350;19;20025;-79
2023/03/15 15:03:57;;;;;;;1.17;0.70;;;;;;;5.59;100.00;98331.06;15351575;19;20003;-82
2023/03/15 15:09:26;;;;;;;1.45;0.60;;;;;;;5.75;100.00;98331.44;15344822;19;20349;-81
2023/03/15 15:14:50;;;;;;;1.10;0.47;;;;;;;5.91;100.00;98343.47;15346989;19;20018;-81
2023/03/15 15:20:23;;;;;;;0.65;0.45;;;;;;;5.73;86.04;98360.13;15344222;19;19999;-81
2023/03/15 15:25:59;;;;;;;0.75;0.50;;;;;;;5.63;87.10;98359.22;15347266;19;20014;-83
2023/03/15 15:31:25;;;;;;;1.05;0.40;;;;;;;5.57;76.13;98375.78;15305135;19;20015;-85
2023/03/15 15:36:45;;;;;;;1.30;0.50;;;;;;;5.91;100.00;98367.53;15295089;19;20019;-84
2023/03/15 15:42:13;;;;;;;1.60;0.70;;;;;;;6.09;95.70;98373.16;15307328;19;20018;-86
2023/03/15 15:47:37;;;;;;;1.70;0.63;;;;;;;5.09;100.00;98388.66;15299697;19;20051;-83
2023/03/15 15:53:03;;;;;;;1.90;0.73;;;;;;;4.69;100.00;98405.25;15300730;19;20029;-86
2023/03/15 15:58:31;;;;;;;2.83;0.80;;;;;;;4.68;100.00;98438.25;15293488;19;20021;-87
2023/03/15 16:03:56;;;;;;;3.13;0.73;;;;;;;4.43;100.00;98434.88;15298216;19;20011;-87
2023/03/15 16:09:15;;;;;;;2.28;0.80;;;;;;;3.72;100.00;98448.34;15299936;19;20086;-83
2023/03/15 16:14:44;;;;;;;2.72;0.90;;;;;;;3.24;100.00;98463.44;15309051;19;20679;-84
2023/03/15 16:20:10;;;;;;;2.35;0.77;;;;;;;3.32;100.00;98466.41;15294802;19;20002;-86
2023/03/15 16:25:38;;;;;;;3.10;0.75;;;;;;;3.45;100.00;98487.63;15289818;19;20011;-85
2023/03/15 16:31:06;;;;;;;2.60;0.68;;;;;;;3.41;100.00;98490.66;15265982;19;20014;-87
2023/03/15 16:36:34;;;;;;;2.30;0.80;;;;;;;3.22;100.00;98494.69;15293000;19;20018;-83
2023/03/15 16:41:58;;;;;;;2.50;0.90;;;;;;;3.33;100.00;98505.38;15292026;19;20021;-84
2023/03/15 16:47:25;;;;;;;2.33;0.80;;;;;;;3.12;100.00;98506.97;15289708;19;20019;-84
2023/03/15 16:52:52;;;;;;;3.53;0.73;;;;;;;3.04;100.00;98527.00;15294291;19;20011;-85
2023/03/15 16:58:20;;;;;;;1.45;0.60;;;;;;;2.81;100.00;98525.13;15287252;19;20454;-86
2023/03/15 17:03:51;;;;;;;2.63;0.70;;;;;;;2.68;100.00;98535.81;15302407;19;20010;-86
2023/03/15 17:09:23;;;;;;;2.28;0.80;;;;;;;2.59;100.00;98542.63;15292977;19;20034;-85
2023/03/15 17:14:48;;;;;;;2.08;0.70;;;;;;;2.46;100.00;98548.78;15304215;19;20038;-84
2023/03/15 17:20:20;;;;;;;2.60;0.68;;;;;;;2.20;100.00;98547.94;15297618;19;20374;-83
2023/03/15 17:25:45;;;;;;;35.80;21.58;;;;;;;2.09;100.00;98566.44;15293423;19;20029;-83
2023/03/15 17:31:15;;;;;;;186.82;110.32;;;;;;;2.07;100.00;98568.34;15295030;19;20034;-82
2023/03/15 17:36:46;;;;;;;20.33;12.00;;;;;;;2.01;100.00;98580.22;15287139;19;20018;-81
2023/03/15 17:42:20;;;;;;;5.30;1.85;;;;;;;1.91;100.00;98597.75;15267531;19;20018;-46
2023/03/15 17:47:45;;;;;;;3.58;1.13;;;;;;;1.84;100.00;98600.78;15277475;19;20017;-46
2023/03/15 17:53:14;;;;;;;2.47;1.10;;;;;;;1.78;100.00;98600.34;15271101;19;20025;-48
2023/03/15 17:58:39;;;;;;;3.55;2.00;;;;;;;1.71;100.00;98615.84;15266315;19;20013;-51
2023/03/15 18:04:04;;;;;;;3.15;1.50;;;;;;;1.59;100.00;98619.31;15270781;19;21266;-54
2023/03/15 18:09:31;;;;;;;2.97;1.40;;;;;;;1.23;100.00;98619.75;15275380;19;20036;-51
2023/03/15 18:14:57;;;;;;;2.15;1.00;;;;;;;1.17;100.00;98619.31;15275248;19;20439;-50
2023/03/15 18:20:22;;;;;;;1.75;1.05;;;;;;;1.11;100.00;98631.16;15274598;19;20022;-52
2023/03/15 18:25:51;;;;;;;5.13;1.30;;;;;;;1.02;100.00;98637.03;15274531;19;20010;-50
2023/03/15 18:31:17;;;;;;;7.22;1.30;;;;;;;0.99;100.00;98645.19;15268023;19;20045;-53
2023/03/15 18:36:42;;;;;;;2.83;1.30;;;;;;;0.94;100.00;98649.91;15273572;19;20018;-46
2023/03/15 18:42:11;;;;;;;2.92;1.48;;;;;;;0.84;100.00;98653.16;15277197;19;20408;-49
2023/03/15 18:47:35;;;;;;;4.05;2.88;;;;;;;0.71;100.00;98662.78;15274076;19;20490;-54
2023/03/15 18:53:00;;;;;;;8.07;4.68;;;;;;;0.63;100.00;98665.91;15270498;19;20095;-47
2023/03/15 18:58:27;;;;;;;4.07;2.55;;;;;;;0.51;100.00;98678.09;15269666;19;20363;-48
2023/03/15 19:03:54;;;;;;;4.85;2.30;;;;;;;0.43;100.00;98677.69;15265057;19;20020;-48
2023/03/15 19:09:19;;;;;;;2.85;1.90;;;;;;;0.30;100.00;98681.06;15270559;19;20015;-47
2023/03/15 19:14:47;;;;;;;5.05;2.60;;;;;;;0.28;100.00;98687.41;15267821;19;20011;-46
2023/03/15 19:20:11;;;;;;;5.55;2.28;;;;;;;0.23;100.00;98689.47;15269495;19;20018;-48
2023/03/15 19:25:35;;;;;;;2.58;1.50;;;;;;;0.21;100.00;98696.66;15271146;19;20022;-48
2023/03/15 19:31:03;;;;;;;2.20;1.30;;;;;;;0.23;100.00;98702.75;15269625;19;20472;-47
2023/03/15 19:36:27;;;;;;;2.13;1.10;;;;;;;0.21;100.00;98702.81;15263958;19;20082;-48
2023/03/15 19:41:59;;;;;;;2.92;1.20;;;;;;;0.23;100.00;98705.38;15268881;19;20538;-46
2023/03/15 19:47:26;;;;;;;2.95;1.00;;;;;;;0.26;100.00;98711.34;15273310;19;20016;-49
2023/03/15 19:52:51;;;;;;;3.47;0.95;;;;;;;0.24;100.00;98707.94;15266554;19;20086;-47
2023/03/15 19:58:15;;;;;;;3.97;1.23;;;;;;;0.17;100.00;98713.66;15269475;19;20034;-51
2023/03/15 20:03:43;;;;;;;2.10;1.17;;;;;;;0.06;100.00;98720.44;15263367;19;20019;-47
2023/03/15 20:09:01;;;;;;;2.72;1.38;;;;;;;-0.05;100.00;98733.44;15264839;19;20042;-52
2023/03/15 20:14:27;;;;;;;4.47;1.50;;;;;;;-0.14;100.00;98740.09;15268070;19;20382;-52
2023/03/15 20:19:55;;;;;;;2.53;1.20;;;;;;;-0.23;100.00;98740.63;15262732;19;20091;-50
2023/03/15 20:25:21;;;;;;;2.40;1.30;;;;;;;-0.32;100.00;98753.44;15260722;19;20790;-49
2023/03/15 20:30:47;;;;;;;4.18;1.20;;;;;;;-0.39;100.00;98756.50;15273627;19;20061;-49
2023/03/15 20:36:15;;;;;;;2.42;1.42;;;;;;;-0.50;100.00;98759.72;15277859;19;20017;-48
2023/03/15 20:41:46;;;;;;;3.60;1.40;;;;;;;-0.57;100.00;98768.94;15265477;19;20378;-47
2023/03/15 20:47:11;;;;;;;2.92;1.30;;;;;;;-0.65;100.00;98772.84;15280025;19;20014;-47
2023/03/15 20:52:38;;;;;;;4.10;1.17;;;;;;;-0.72;100.00;98795.28;15275544;19;20491;-54
2023/03/15 20:58:03;;;;;;;2.00;1.10;;;;;;;-0.82;100.00;98789.59;15278692;19;20469;-48
2023/03/15 21:03:30;;;;;;;6.18;2.67;;;;;;;-0.87;100.00;98793.41;15275858;19;20021;-45
2023/03/15 21:08:57;;;;;;;3.10;1.77;;;;;;;-0.92;100.00;98798.94;15280978;19;20012;-44
2023/03/15 21:14:22;;;;;;;3.67;2.13;;;;;;;-0.96;100.00;98800.91;15273988;19;20021;-44
2023/03/15 21:19:48;;;;;;;4.20;1.90;;;;;;;-1.01;100.00;98802.06;15273835;19;20074;-45
2023/03/15 21:25:16;;;;;;;5.25;2.20;;;;;;;-1.02;100.00;98808.28;15280360;19;20017;-47
2023/03/15 21:30:41;;;;;;;4.72;2.90;;;;;;;-1.05;100.00;98809.31;15280568;19;20078;-52
2023/03/15 21:36:06;;;;;;;3.22;1.83;;;;;;;-1.10;100.00;98813.97;15279892;19;20010;-46
2023/03/15 21:41:40;;;;;;;3.70;1.85;;;;;;;-1.11;100.00;98828.13;15273845;19;20022;-49
2023/03/15 21:47:06;;;;;;;2.92;1.77;;;;;;;-1.13;100.00;98830.03;15269913;19;20589;-46
2023/03/15 21:52:25;;;;;;;3.33;1.85;;;;;;;-1.13;100.00;98830.03;15274490;19;20015;-52
2023/03/15 21:57:52;;;;;;;3.60;1.98;;;;;;;-1.18;100.00;98827.59;15275788;19;20006;-45
2023/03/15 22:03:18;;;;;;;6.20;2.20;;;;;;;-1.22;100.00;98836.63;15273564;19;20023;-48
2023/03/15 22:08:42;;;;;;;4.40;2.40;;;;;;;-1.26;100.00;98830.63;15276663;19;20593;-48
2023/03/15 22:14:09;;;;;;;3.33;1.80;;;;;;;-1.31;100.00;98837.06;15272957;19;20086;-47
2023/03/15 22:19:34;;;;;;;5.28;1.80;;;;;;;-1.36;100.00;98836.44;15269358;19;20041;-45
2023/03/15 22:24:58;;;;;;;3.03;1.80;;;;;;;-1.36;100.00;98829.38;15277737;19;20183;-46
2023/03/15 22:30:26;;;;;;;4.20;1.90;;;;;;;-1.38;100.00;98838.28;15274428;19;20385;-47
2023/03/15 22:35:56;;;;;;;4.63;2.10;;;;;;;-1.40;100.00;98838.38;15274139;19;20073;-44
2023/03/15 22:41:20;;;;;;;2.75;1.60;;;;;;;-1.43;100.00;98838.53;15272785;19;20368;-48
2023/03/15 22:46:47;;;;;;;3.10;1.52;;;;;;;-1.45;100.00;98840.38;15272618;19;20021;-48
2023/03/15 22:52:13;;;;;;;3.80;1.65;;;;;;;-1.48;100.00;98849.31;15272906;19;20021;-46
2023/03/15 22:57:42;;;;;;;4.13;1.70;;;;;;;-1.52;100.00;98853.03;15276377;19;20020;-46
2023/03/15 23:03:02;;;;;;;4.47;2.10;;;;;;;-1.53;100.00;98861.91;15284804;19;20007;-46
2023/03/15 23:08:28;;;;;;;2.40;1.60;;;;;;;-1.58;100.00;98859.47;15307679;19;20088;-47
2023/03/15 23:13:52;;;;;;;2.60;1.48;;;;;;;-1.64;100.00;98854.50;15283431;19;20077;-46
2023/03/15 23:19:21;;;;;;;2.90;1.60;;;;;;;-1.68;100.00;98863.50;15276078;19;20029;-45
2023/03/15 23:24:45;;;;;;;5.55;1.70;;;;;;;-1.70;100.00;98862.69;15267178;19;20074;-45
2023/03/15 23:30:13;;;;;;;3.95;1.58;;;;;;;-1.76;100.00;98870.94;15269286;19;20015;-49
2023/03/15 23:35:40;;;;;;;2.83;1.55;;;;;;;-1.82;100.00;98858.88;15269542;19;20491;-48
2023/03/15 23:41:06;;;;;;;3.50;1.63;;;;;;;-1.83;100.00;98861.59;15264321;19;20019;-46
2023/03/15 23:46:34;;;;;;;3.50;1.75;;;;;;;-1.87;100.00;98872.28;15265209;19;20018;-46
2023/03/15 23:52:04;;;;;;;3.03;1.63;;;;;;;-1.90;100.00;98869.78;15266480;19;20094;-48
2023/03/15 23:57:30;;;;;;;3.88;1.35;;;;;;;-1.93;100.00;98872.56;15273097;19;20760;-45
